Terminal Aerodrome Forecast
Issued by NWS

Home | Current Version | Previous Version | Text Only | Print | Product List | Glossary On
Versions: 1 2 3 4 5 6 7 8 9 10 11 12 13 14 15 16
000
FTUS45 KTFX 022320
TAFLWT
TAF
KLWT 022320Z 0300/0324 VRB05KT 6SM HZ FEW070
     FM030200 12005KT 6SM HZ FEW100
     FM031200 VRB05KT P6SM SKC
     FM031700 VRB06KT P6SM SCT080 BKN250=

USA.gov is the U.S. government's official web portal to all federal, state and local government web resources and services.